Time;durP1;ratioP1;P1;durP2;ratioP2;P2;SDS_P1;SDS_P2;PMS_P1;PMS_P2;Temp;Humidity;BMP_temperature;BMP_pressure;BME280_temperature;BME280_humidity;BME280_pressure;Samples;Min_cycle;Max_cycle;Signal;HPM_P1;HPM_P2
2022/05/02 00:01:55;;;;;;;30.08;19.80;;;;;;;10.74;68.09;99278.19;5183252;28;20049;-68
2022/05/02 00:04:45;;;;;;;27.30;19.52;;;;;;;10.68;67.70;99276.06;5181077;28;20527;-67
2022/05/02 00:07:36;;;;;;;31.85;20.90;;;;;;;10.51;66.60;99266.13;5178262;28;20053;-69
2022/05/02 00:10:27;;;;;;;27.95;19.77;;;;;;;10.48;66.36;99271.72;5174551;28;20053;-68
2022/05/02 00:13:17;;;;;;;33.30;22.05;;;;;;;10.57;67.41;99247.88;5167285;28;20235;-68
2022/05/02 00:16:07;;;;;;;31.08;20.83;;;;;;;10.53;67.33;99269.50;5181204;28;20057;-69
2022/05/02 00:18:57;;;;;;;31.80;22.67;;;;;;;10.69;68.36;99275.09;5170879;28;20065;-68
2022/05/02 00:21:48;;;;;;;32.55;22.38;;;;;;;10.47;67.48;99249.66;5168799;28;20061;-69
2022/05/02 00:24:38;;;;;;;32.22;21.88;;;;;;;10.47;68.47;99264.75;5184714;28;20522;-68
2022/05/02 00:27:28;;;;;;;35.67;21.40;;;;;;;10.33;67.83;99258.84;5165606;28;20109;-68
2022/05/02 00:30:20;;;;;;;32.63;22.10;;;;;;;10.37;68.44;99264.72;5176625;28;20061;-68
2022/05/02 00:33:11;;;;;;;32.42;22.65;;;;;;;10.38;68.31;99265.56;5184175;28;20116;-68
2022/05/02 00:36:01;;;;;;;35.25;22.55;;;;;;;10.50;68.37;99256.53;5184785;28;20046;-68
2022/05/02 00:38:52;;;;;;;31.17;21.67;;;;;;;10.54;67.77;99255.25;5165427;28;20049;-68
2022/05/02 00:41:42;;;;;;;33.25;23.08;;;;;;;10.53;68.05;99256.25;5173760;28;20483;-69
2022/05/02 00:44:33;;;;;;;36.05;22.42;;;;;;;10.35;67.82;99248.09;5179624;28;20047;-68
2022/05/02 00:47:23;;;;;;;31.23;21.02;;;;;;;10.18;67.44;99249.56;5183293;28;20448;-69
2022/05/02 00:50:13;;;;;;;32.75;20.98;;;;;;;10.08;67.34;99244.22;5174570;28;20061;-67
2022/05/02 00:53:06;;;;;;;31.35;21.08;;;;;;;10.05;67.24;99241.00;5173643;28;20062;-68
2022/05/02 00:55:57;;;;;;;27.05;19.10;;;;;;;10.05;67.67;99243.66;5180067;28;20072;-68
2022/05/02 00:58:50;;;;;;;36.22;21.00;;;;;;;10.10;68.09;99246.75;5181533;28;20583;-68
2022/05/02 01:01:40;;;;;;;33.13;21.90;;;;;;;10.13;67.60;99246.47;5176103;28;20057;-69
2022/05/02 01:04:31;;;;;;;34.17;20.33;;;;;;;10.21;68.21;99237.88;5174290;28;20546;-69
2022/05/02 01:07:21;;;;;;;30.83;20.58;;;;;;;10.18;68.12;99227.53;5183954;28;20069;-69
2022/05/02 01:10:16;;;;;;;35.13;22.40;;;;;;;10.26;67.53;99225.91;5175692;28;20124;-69
2022/05/02 01:13:06;;;;;;;33.97;22.80;;;;;;;10.23;68.06;99239.41;5181306;28;20056;-69
2022/05/02 01:15:56;;;;;;;35.40;22.23;;;;;;;10.01;68.26;99244.91;5171665;28;20060;-68
2022/05/02 01:18:51;;;;;;;31.17;19.88;;;;;;;9.81;68.38;99236.06;5183833;28;20537;-69
2022/05/02 01:21:44;;;;;;;29.02;19.52;;;;;;;9.80;68.85;99235.22;5173374;28;20056;-68
2022/05/02 01:24:38;;;;;;;32.58;20.90;;;;;;;9.82;68.10;99230.63;5180197;28;20058;-68
2022/05/02 01:27:28;;;;;;;32.35;20.85;;;;;;;9.64;68.13;99217.16;5183044;28;20058;-69
2022/05/02 01:30:18;;;;;;;29.15;20.83;;;;;;;9.62;68.56;99228.84;5172956;28;20073;-69
2022/05/02 01:33:09;;;;;;;32.55;21.42;;;;;;;9.68;68.52;99212.44;5176644;28;20081;-67
2022/05/02 01:35:59;;;;;;;35.20;22.88;;;;;;;9.61;68.17;99203.34;5180553;28;20180;-69
2022/05/02 01:38:50;;;;;;;34.67;22.38;;;;;;;9.70;68.54;99215.81;5168148;28;20195;-69
2022/05/02 01:41:40;;;;;;;28.90;19.67;;;;;;;9.49;68.20;99201.75;5180963;28;20593;-68
2022/05/02 01:44:30;;;;;;;31.30;21.42;;;;;;;9.62;68.19;99220.91;5180671;28;20054;-69
2022/05/02 01:47:20;;;;;;;30.30;21.38;;;;;;;9.62;68.67;99218.25;5179214;28;20056;-69
2022/05/02 01:50:10;;;;;;;31.80;21.45;;;;;;;9.71;67.99;99214.00;5181869;28;20049;-69
2022/05/02 01:53:01;;;;;;;34.10;21.83;;;;;;;9.72;68.61;99207.72;5176813;28;20061;-69
2022/05/02 01:55:51;;;;;;;34.78;21.70;;;;;;;9.61;69.30;99201.53;5174814;28;20390;-68
2022/05/02 01:58:41;;;;;;;28.42;19.70;;;;;;;9.76;67.87;99212.59;5186382;28;20083;-68
2022/05/02 02:01:32;;;;;;;27.38;18.92;;;;;;;9.83;67.91;99207.63;5176158;28;20503;-69
2022/05/02 02:07:31;;;;;;;36.10;24.23;;;;;;;9.99;68.63;99207.94;5183677;28;20674;-69
2022/05/02 02:10:21;;;;;;;36.92;22.92;;;;;;;10.04;68.98;99215.50;5172128;28;20073;-68
2022/05/02 02:13:12;;;;;;;35.63;23.52;;;;;;;10.10;69.14;99214.97;5187353;28;20072;-67
2022/05/02 02:16:07;;;;;;;37.85;24.10;;;;;;;10.03;69.82;99214.69;5180099;28;20058;-67
2022/05/02 02:18:58;;;;;;;39.55;25.15;;;;;;;10.10;69.62;99199.06;5179416;28;20055;-68
2022/05/02 02:21:48;;;;;;;39.88;25.10;;;;;;;10.13;68.82;99214.69;5172899;28;20057;-68
2022/05/02 02:24:38;;;;;;;38.55;24.65;;;;;;;10.18;69.16;99214.28;5176389;28;20050;-68
2022/05/02 02:27:27;;;;;;;39.15;26.67;;;;;;;10.26;69.54;99211.81;5182161;28;20064;-67
2022/05/02 02:30:19;;;;;;;39.60;24.70;;;;;;;10.17;69.61;99205.50;5185389;28;20049;-68
2022/05/02 02:33:09;;;;;;;37.20;24.55;;;;;;;10.33;69.84;99213.81;5179939;28;20061;-68
2022/05/02 02:35:59;;;;;;;37.53;24.83;;;;;;;10.40;69.96;99213.22;5181062;28;20095;-68
2022/05/02 02:38:50;;;;;;;43.00;26.48;;;;;;;10.34;69.61;99188.97;5178255;28;20143;-68
2022/05/02 02:41:40;;;;;;;38.35;25.08;;;;;;;10.40;70.08;99199.97;5182463;28;20076;-67
2022/05/02 02:44:31;;;;;;;38.30;26.00;;;;;;;10.39;69.97;99185.06;5174128;28;20131;-68
2022/05/02 02:47:21;;;;;;;37.50;25.45;;;;;;;10.45;70.10;99203.06;5173089;28;20057;-68
2022/05/02 02:50:11;;;;;;;34.85;23.42;;;;;;;10.47;69.63;99188.69;5180744;28;20128;-67
2022/05/02 02:53:01;;;;;;;32.97;23.60;;;;;;;10.39;68.58;99175.28;5179069;28;20539;-68
2022/05/02 02:55:51;;;;;;;37.13;23.77;;;;;;;10.54;69.74;99176.56;5175594;28;20046;-67
2022/05/02 02:58:41;;;;;;;32.53;23.10;;;;;;;10.48;69.32;99165.69;5172231;28;20516;-68
2022/05/02 03:01:31;;;;;;;36.95;23.98;;;;;;;10.61;69.64;99179.50;5170373;28;20054;-67
2022/05/02 03:07:31;;;;;;;34.08;23.98;;;;;;;10.75;69.81;99172.91;5177336;28;20535;-68
2022/05/02 03:10:21;;;;;;;35.25;23.20;;;;;;;10.86;69.82;99170.13;5170079;28;20061;-68
2022/05/02 03:13:11;;;;;;;31.98;22.30;;;;;;;10.84;69.29;99172.09;5179115;28;20490;-68
2022/05/02 03:16:02;;;;;;;35.58;23.50;;;;;;;10.88;69.61;99172.63;5177312;28;20053;-68
2022/05/02 03:18:52;;;;;;;36.90;24.58;;;;;;;10.75;70.02;99168.44;5174415;28;20127;-68
2022/05/02 03:21:43;;;;;;;37.00;24.13;;;;;;;10.97;69.30;99167.31;5169223;28;20466;-68
2022/05/02 03:24:32;;;;;;;38.05;24.25;;;;;;;10.89;69.66;99166.34;5170118;28;20161;-68
2022/05/02 03:27:23;;;;;;;33.50;23.10;;;;;;;10.75;70.14;99159.66;5178445;28;20558;-68
2022/05/02 03:30:14;;;;;;;33.92;24.20;;;;;;;10.77;69.93;99157.72;5174314;28;20061;-68
2022/05/02 03:33:04;;;;;;;35.40;23.98;;;;;;;10.84;69.69;99168.59;5174989;28;20496;-68
2022/05/02 03:35:54;;;;;;;37.63;23.38;;;;;;;10.74;69.21;99152.69;5177309;28;20125;-68
2022/05/02 03:38:44;;;;;;;36.53;23.65;;;;;;;10.51;69.99;99115.84;5172111;28;20065;-68
2022/05/02 03:41:34;;;;;;;35.03;23.52;;;;;;;10.92;69.58;99158.09;5171583;28;20132;-68
2022/05/02 03:44:25;;;;;;;44.30;24.42;;;;;;;11.03;69.13;99155.31;5174899;28;20053;-69
2022/05/02 03:47:15;;;;;;;34.83;22.08;;;;;;;10.93;68.87;99154.50;5168926;28;20050;-69
2022/05/02 03:50:06;;;;;;;32.63;22.98;;;;;;;10.98;68.35;99161.03;5184206;28;20061;-67
2022/05/02 03:52:56;;;;;;;33.42;23.42;;;;;;;11.05;68.95;99163.94;5178990;28;20431;-68
2022/05/02 03:55:46;;;;;;;34.25;23.17;;;;;;;10.67;69.20;99133.84;5181408;28;20192;-68
2022/05/02 03:58:36;;;;;;;35.85;22.55;;;;;;;10.69;69.44;99174.31;5171950;28;20053;-68
2022/05/02 04:01:26;;;;;;;41.67;21.83;;;;;;;10.51;69.32;99160.09;5170695;28;20053;-68
2022/05/02 04:04:16;;;;;;;32.50;20.90;;;;;;;10.37;68.47;99152.56;5176163;28;20058;-69
2022/05/02 04:07:06;;;;;;;29.10;19.55;;;;;;;10.44;68.48;99158.97;5176327;28;20061;-69
2022/05/02 04:09:56;;;;;;;31.38;20.73;;;;;;;10.57;68.40;99160.38;5174137;28;20519;-68
2022/05/02 04:12:47;;;;;;;29.08;20.42;;;;;;;10.47;68.71;99164.00;5167715;28;20053;-68
2022/05/02 04:15:37;;;;;;;43.15;21.42;;;;;;;10.29;69.26;99147.94;5170141;28;20103;-68
2022/05/02 04:18:27;;;;;;;33.75;20.35;;;;;;;10.38;68.76;99163.00;5169697;28;20061;-67
2022/05/02 04:21:17;;;;;;;27.92;19.85;;;;;;;10.14;69.31;99155.44;5171172;28;20080;-68
2022/05/02 04:24:08;;;;;;;28.20;19.08;;;;;;;10.04;67.92;99162.53;5187124;28;20054;-68
2022/05/02 04:26:58;;;;;;;26.75;19.15;;;;;;;9.97;68.61;99148.16;5176933;28;20053;-68
2022/05/02 04:29:48;;;;;;;28.42;20.05;;;;;;;10.26;69.17;99161.47;5186365;28;20053;-68
2022/05/02 04:32:38;;;;;;;30.98;20.77;;;;;;;10.23;68.65;99167.88;5187773;28;20088;-68
2022/05/02 04:35:29;;;;;;;31.02;20.92;;;;;;;10.05;69.19;99161.53;5184138;28;20060;-69
2022/05/02 04:38:19;;;;;;;27.85;19.83;;;;;;;10.03;68.40;99168.78;5171929;28;20119;-68
2022/05/02 04:41:13;;;;;;;33.05;20.55;;;;;;;9.96;68.80;99159.69;5184027;28;20569;-69
2022/05/02 04:44:04;;;;;;;31.15;20.27;;;;;;;9.84;69.13;99156.34;5178712;28;20073;-68
2022/05/02 04:46:54;;;;;;;29.13;19.80;;;;;;;9.82;68.97;99153.81;5176512;28;20056;-68
2022/05/02 04:49:44;;;;;;;32.97;21.50;;;;;;;9.72;68.89;99138.88;5170022;28;20061;-68
2022/05/02 04:52:34;;;;;;;30.13;20.30;;;;;;;9.77;69.39;99158.69;5182040;28;20060;-68
2022/05/02 04:55:24;;;;;;;31.52;21.05;;;;;;;9.78;69.26;99151.59;5172315;28;20073;-68
2022/05/02 04:58:15;;;;;;;33.83;21.90;;;;;;;9.87;70.59;99162.19;5185736;28;20288;-68
2022/05/02 05:01:07;;;;;;;33.95;21.40;;;;;;;9.98;70.27;99160.41;5171595;28;20204;-67
2022/05/02 05:03:57;;;;;;;29.73;20.98;;;;;;;10.03;69.60;99160.81;5180175;28;20050;-68
2022/05/02 05:06:47;;;;;;;34.55;23.77;;;;;;;10.00;71.68;99167.25;5170798;28;20054;-69
2022/05/02 05:09:37;;;;;;;35.95;24.17;;;;;;;10.09;71.26;99174.38;5188273;23;20056;-70
2022/05/02 05:12:46;;;;;;;33.03;23.17;;;;;;;10.26;70.24;99167.59;5201018;28;20057;-67
2022/05/02 05:19:17;;;;;;;40.28;24.98;;;;;;;10.31;69.90;99146.81;5200108;28;20519;-67
2022/05/02 05:22:14;;;;;;;32.78;23.33;;;;;;;10.31;69.59;99159.25;5180529;28;20054;-67
2022/05/02 05:25:24;;;;;;;41.88;24.80;;;;;;;10.52;69.95;99159.94;5168430;28;20047;-67
2022/05/02 05:28:50;;;;;;;39.17;23.33;;;;;;;10.42;69.25;99166.22;5172616;28;20057;-70
2022/05/02 05:31:40;;;;;;;42.63;24.63;;;;;;;10.57;70.26;99164.84;5182319;28;20492;-70
2022/05/02 05:35:03;;;;;;;37.58;24.25;;;;;;;10.55;69.64;99166.78;5179054;28;20144;-71
2022/05/02 05:38:10;;;;;;;39.85;24.92;;;;;;;10.53;69.51;99151.03;5176690;28;20057;-66
2022/05/02 05:41:24;;;;;;;33.88;22.02;;;;;;;10.71;69.03;99164.41;5178487;28;20140;-66
2022/05/02 05:44:32;;;;;;;57.80;25.55;;;;;;;11.00;69.52;99166.22;5178008;28;20144;-67
2022/05/02 05:47:24;;;;;;;43.13;26.02;;;;;;;11.28;69.32;99170.59;5180343;28;20061;-68
2022/05/02 05:50:24;;;;;;;39.92;26.85;;;;;;;11.57;67.91;99163.53;5181821;28;20148;-70
2022/05/02 05:53:35;;;;;;;43.25;26.52;;;;;;;11.53;68.60;99168.31;5186452;28;20077;-70
2022/05/02 05:56:44;;;;;;;37.60;24.88;;;;;;;11.68;67.52;99172.13;5176179;28;20652;-68
2022/05/02 06:00:05;;;;;;;36.03;24.58;;;;;;;11.48;68.51;99155.44;5181603;28;20108;-70
2022/05/02 06:03:14;;;;;;;35.50;24.50;;;;;;;11.79;67.93;99151.66;5179065;28;20461;-69
2022/05/02 06:06:04;;;;;;;37.97;25.23;;;;;;;12.06;67.92;99154.38;5179999;28;20099;-69
2022/05/02 06:08:58;;;;;;;39.35;26.17;;;;;;;12.14;67.14;99151.78;5180838;28;20223;-70
2022/05/02 06:11:49;;;;;;;45.25;27.65;;;;;;;12.46;67.56;99142.47;5181418;28;20522;-69
2022/05/02 06:21:05;;;;;;;37.70;26.92;;;;;;;12.77;66.58;99156.19;5175273;28;20428;-67
2022/05/02 06:23:59;;;;;;;36.42;26.08;;;;;;;12.99;65.01;99154.03;5176103;28;20057;-68
2022/05/02 06:26:52;;;;;;;43.08;28.73;;;;;;;13.12;65.23;99151.81;5178661;28;20081;-68
2022/05/02 06:29:42;;;;;;;42.63;26.23;;;;;;;13.20;65.57;99151.03;5179393;28;20068;-67
2022/05/02 06:32:35;;;;;;;40.75;27.33;;;;;;;13.50;65.83;99157.72;5178996;28;20443;-69
2022/05/02 06:35:31;;;;;;;39.43;26.37;;;;;;;13.15;67.39;99156.81;5174552;28;20104;-69
2022/05/02 06:38:30;;;;;;;35.17;23.63;;;;;;;13.59;63.63;99154.94;5175967;28;20299;-68
2022/05/02 06:41:59;;;;;;;34.85;23.58;;;;;;;13.77;63.64;99160.16;5160835;28;20137;-67
2022/05/02 06:45:03;;;;;;;40.50;25.48;;;;;;;13.82;64.62;99160.53;5168664;28;20050;-67
2022/05/02 06:48:18;;;;;;;37.67;24.20;;;;;;;13.53;64.62;99160.91;5168959;28;20493;-67
2022/05/02 06:51:26;;;;;;;37.15;25.85;;;;;;;13.53;64.17;99158.22;5177948;28;20065;-67
2022/05/02 06:54:52;;;;;;;43.50;26.25;;;;;;;13.53;65.42;99150.25;5181486;28;20415;-68
2022/05/02 06:58:20;;;;;;;36.13;26.10;;;;;;;14.21;63.56;99161.84;5181059;28;20410;-67
2022/05/02 07:01:48;;;;;;;39.35;26.17;;;;;;;13.75;63.01;99150.69;5179092;28;20057;-67
2022/05/02 07:04:48;;;;;;;34.60;25.02;;;;;;;13.94;63.23;99163.75;5178707;28;20199;-67
2022/05/02 07:07:53;;;;;;;35.83;25.17;;;;;;;14.22;61.60;99160.84;5171272;28;20054;-67
2022/05/02 07:10:43;;;;;;;39.05;25.88;;;;;;;14.41;62.09;99154.38;5179096;28;20042;-67
2022/05/02 07:13:55;;;;;;;36.80;25.45;;;;;;;14.31;63.15;99144.69;5178828;28;20156;-67
2022/05/02 07:16:51;;;;;;;38.65;26.83;;;;;;;14.81;62.60;99156.28;5180377;28;20057;-67
2022/05/02 07:20:00;;;;;;;38.28;26.27;;;;;;;15.60;58.99;99160.00;5172618;28;20065;-68
2022/05/02 07:22:56;;;;;;;37.47;26.02;;;;;;;15.22;60.32;99158.91;5167800;28;20054;-67
2022/05/02 07:25:56;;;;;;;33.85;25.38;;;;;;;15.51;59.04;99161.00;5162403;28;20057;-67
2022/05/02 07:28:48;;;;;;;41.35;27.02;;;;;;;15.97;59.05;99155.88;5176098;28;20060;-67
2022/05/02 07:31:39;;;;;;;38.17;26.52;;;;;;;16.20;59.24;99154.06;5176167;28;20431;-67
2022/05/02 07:34:29;;;;;;;33.45;23.92;;;;;;;17.60;54.16;99162.63;5169882;28;20058;-66
2022/05/02 07:37:23;;;;;;;38.83;24.83;;;;;;;18.89;50.73;99159.41;5161615;28;20577;-66
2022/05/02 07:40:19;;;;;;;37.53;26.00;;;;;;;19.02;50.19;99156.81;5166092;28;20310;-67
2022/05/02 07:43:09;;;;;;;34.45;23.42;;;;;;;19.56;50.20;99153.47;5162908;28;20058;-66
2022/05/02 07:46:02;;;;;;;29.85;23.60;;;;;;;19.53;50.61;99153.88;5172121;28;20081;-67
2022/05/02 07:48:55;;;;;;;31.63;22.92;;;;;;;20.39;47.99;99158.81;5176255;28;20048;-67
2022/05/02 07:51:47;;;;;;;31.52;22.55;;;;;;;19.91;49.47;99148.13;5164529;28;20054;-67
2022/05/02 07:54:41;;;;;;;31.75;22.42;;;;;;;19.15;50.59;99150.72;5166267;28;20505;-66
2022/05/02 07:57:33;;;;;;;31.63;23.38;;;;;;;20.35;50.02;99147.63;5170610;28;20232;-66
2022/05/02 08:00:24;;;;;;;29.45;22.38;;;;;;;20.10;48.96;99139.28;5174343;28;20062;-66
2022/05/02 08:03:24;;;;;;;30.42;21.67;;;;;;;21.37;45.90;99134.06;5173309;28;20089;-67
2022/05/02 08:06:39;;;;;;;27.42;20.25;;;;;;;21.48;44.48;99131.53;5181753;28;20073;-67
2022/05/02 08:09:37;;;;;;;28.33;21.57;;;;;;;22.43;44.99;99139.91;5194735;28;20159;-67
2022/05/02 08:12:32;;;;;;;27.92;21.00;;;;;;;22.59;44.01;99138.59;5176315;28;20424;-68
2022/05/02 08:15:35;;;;;;;26.05;20.63;;;;;;;22.72;42.81;99137.66;5172832;28;20534;-67
2022/05/02 08:18:58;;;;;;;27.02;19.92;;;;;;;22.42;44.84;99146.38;5184014;28;20101;-67
2022/05/02 08:28:45;;;;;;;25.52;19.50;;;;;;;21.77;43.16;99148.28;5177807;28;20056;-69
2022/05/02 08:31:52;;;;;;;25.02;20.33;;;;;;;22.65;43.36;99139.56;5175253;28;20416;-67
2022/05/02 08:35:00;;;;;;;23.55;17.83;;;;;;;23.02;42.00;99129.75;5176200;28;20100;-68
2022/05/02 08:38:28;;;;;;;23.27;19.05;;;;;;;22.75;41.72;99131.81;5170939;28;20083;-68
2022/05/02 08:41:31;;;;;;;23.65;18.13;;;;;;;22.80;40.52;99129.28;5169975;28;20454;-68
2022/05/02 08:45:10;;;;;;;25.92;18.55;;;;;;;22.33;40.79;99130.63;5171967;28;20057;-68
2022/05/02 08:48:28;;;;;;;25.52;18.45;;;;;;;23.27;40.38;99126.19;5177614;28;20225;-68
2022/05/02 08:52:08;;;;;;;27.67;17.63;;;;;;;23.41;40.73;99116.88;5170059;28;20166;-68
2022/05/02 08:55:30;;;;;;;20.77;16.53;;;;;;;23.87;39.39;99127.25;5178624;28;20526;-68
2022/05/02 08:58:23;;;;;;;24.02;16.63;;;;;;;23.85;40.29;99120.41;5175852;28;20080;-68
2022/05/02 09:01:20;;;;;;;;;;;;;;;24.12;38.72;99118.19;5164705;28;20054;-68
2022/05/02 09:04:40;;;;;;;25.08;15.52;;;;;;;23.86;37.23;99103.09;5172865;28;19961;-68
2022/05/02 09:08:04;;;;;;;28.60;17.95;;;;;;;23.78;37.34;99120.50;5168256;28;20062;-68
2022/05/02 09:11:33;;;;;;;22.80;16.35;;;;;;;23.17;38.29;99124.00;5170897;28;20065;-67
2022/05/02 09:14:56;;;;;;;24.23;15.15;;;;;;;23.99;38.35;99112.94;5165249;28;20142;-68
2022/05/02 09:18:05;;;;;;;20.48;16.08;;;;;;;23.67;37.17;99113.94;5168730;28;20085;-68
2022/05/02 09:20:57;;;;;;;19.30;15.45;;;;;;;24.20;37.88;99117.84;5175638;28;20510;-67
2022/05/02 09:24:12;;;;;;;19.70;15.48;;;;;;;23.71;38.03;99118.88;5182018;28;20057;-67
2022/05/02 09:27:14;;;;;;;25.70;16.40;;;;;;;23.44;39.88;99111.03;5166353;28;20045;-67
2022/05/02 09:30:25;;;;;;;18.35;14.95;;;;;;;23.74;39.59;99111.16;5167989;28;20133;-67
2022/05/02 09:33:54;;;;;;;21.55;16.10;;;;;;;23.82;40.23;99110.03;5171471;28;20139;-67
2022/05/02 09:37:02;;;;;;;22.23;15.90;;;;;;;23.54;39.78;99108.66;5178669;28;20080;-67
2022/05/02 09:40:01;;;;;;;20.92;15.45;;;;;;;22.66;39.66;99085.31;5175528;28;20085;-67
2022/05/02 09:50:37;;;;;;;21.63;15.40;;;;;;;23.52;42.12;99099.09;5170822;28;20057;-67
2022/05/02 09:53:31;;;;;;;21.60;14.85;;;;;;;24.91;39.46;99089.09;5168798;28;20485;-68
2022/05/02 09:56:38;;;;;;;21.55;14.40;;;;;;;24.54;35.76;99086.56;5164782;28;20050;-67
2022/05/02 09:59:32;;;;;;;20.75;14.82;;;;;;;24.75;36.69;99076.22;5171058;28;20058;-67
2022/05/02 10:02:23;;;;;;;18.75;14.05;;;;;;;24.73;38.75;99079.13;5171182;28;20420;-67
2022/05/02 10:05:22;;;;;;;19.88;14.68;;;;;;;24.20;37.77;99085.34;5175603;28;20054;-68
2022/05/02 10:08:40;;;;;;;20.48;13.90;;;;;;;23.64;39.49;99068.34;5173456;28;20053;-68
2022/05/02 10:11:35;;;;;;;18.20;13.95;;;;;;;23.86;38.80;99074.13;5169748;28;20053;-68
2022/05/02 10:14:42;;;;;;;18.20;14.73;;;;;;;22.82;38.62;99072.31;5173696;28;20069;-68
2022/05/02 10:17:54;;;;;;;17.75;13.43;;;;;;;22.08;42.12;99071.13;5176562;28;20046;-68
2022/05/02 10:21:09;;;;;;;17.65;13.00;;;;;;;22.19;41.65;99062.38;5168867;28;20172;-68
2022/05/02 10:24:38;;;;;;;20.25;13.93;;;;;;;21.88;40.80;99061.25;5167267;28;20076;-67
2022/05/02 10:27:52;;;;;;;21.25;13.93;;;;;;;20.51;43.39;99068.34;5164865;28;20054;-68
2022/05/02 10:30:50;;;;;;;;;;;;;;;20.64;44.05;99073.75;5170029;28;20058;-67
2022/05/02 10:33:45;;;;;;;20.85;13.55;;;;;;;20.01;46.41;99064.31;5171700;28;19925;-67
2022/05/02 10:36:37;;;;;;;21.45;13.68;;;;;;;20.13;44.18;99058.13;5168906;28;20424;-67
2022/05/02 10:39:31;;;;;;;22.95;12.70;;;;;;;20.12;45.47;99059.16;5170193;28;20053;-67
2022/05/02 10:42:25;;;;;;;21.73;13.50;;;;;;;21.28;43.01;99063.31;5171161;28;20426;-67
2022/05/02 10:45:16;;;;;;;17.42;13.70;;;;;;;20.87;44.22;99042.84;5174786;28;20053;-67
2022/05/02 10:48:18;;;;;;;17.67;13.00;;;;;;;20.97;44.97;99054.03;5177559;28;20049;-67
2022/05/02 10:51:33;;;;;;;17.30;13.45;;;;;;;20.22;46.90;99049.84;5177541;28;20060;-67
2022/05/02 10:54:41;;;;;;;22.60;14.25;;;;;;;21.14;46.99;99053.59;5166716;28;20429;-68
2022/05/02 10:57:38;;;;;;;22.42;15.27;;;;;;;21.02;46.15;99043.44;5163549;28;20054;-67
2022/05/02 11:00:28;;;;;;;18.88;14.32;;;;;;;21.89;45.58;99029.72;5167802;28;20058;-67
2022/05/02 11:04:00;;;;;;;22.48;14.68;;;;;;;21.64;46.18;99043.09;5172626;28;20097;-68
2022/05/02 11:06:59;;;;;;;18.17;13.98;;;;;;;21.81;45.68;99039.69;5177829;28;20053;-68
2022/05/02 11:10:02;;;;;;;19.85;13.50;;;;;;;20.89;46.07;99035.38;5178493;28;20065;-67
2022/05/02 11:13:25;;;;;;;19.80;13.50;;;;;;;21.68;43.98;99033.53;5207594;23;20068;-70
2022/05/02 11:16:27;;;;;;;18.63;11.85;;;;;;;21.45;42.03;99021.38;5193982;28;20069;-70
2022/05/02 11:22:38;;;;;;;19.42;11.30;;;;;;;21.60;42.19;99031.09;5198319;28;20126;-70
2022/05/02 11:25:35;;;;;;;17.57;11.53;;;;;;;20.99;41.37;99008.00;5191347;28;20060;-69
2022/05/02 11:28:50;;;;;;;12.18;9.48;;;;;;;22.06;41.33;99014.63;5193895;28;20311;-68
2022/05/02 11:31:50;;;;;;;16.92;10.05;;;;;;;22.42;40.65;99021.28;5192394;28;20499;-70
2022/05/02 11:35:08;;;;;;;16.83;9.35;;;;;;;22.17;39.13;99013.13;5195124;28;20060;-69
2022/05/02 11:38:11;;;;;;;13.05;9.32;;;;;;;22.17;38.26;99007.75;5196240;28;20102;-68
2022/05/02 11:41:18;;;;;;;12.65;8.95;;;;;;;22.13;39.98;99003.78;5196357;28;20054;-68
2022/05/02 11:44:13;;;;;;;12.00;9.00;;;;;;;22.54;43.64;99013.28;5199139;28;20056;-67
2022/05/02 11:47:15;;;;;;;10.70;8.00;;;;;;;22.54;38.88;99013.28;5192666;28;20042;-68
2022/05/02 11:50:10;;;;;;;15.00;7.85;;;;;;;22.63;38.56;98999.25;5199184;28;20392;-68
2022/05/02 11:53:08;;;;;;;10.50;7.50;;;;;;;22.60;37.28;98993.47;5199450;28;20423;-69
2022/05/02 11:56:04;;;;;;;9.93;7.28;;;;;;;22.18;40.30;99002.09;5197904;28;20524;-67
2022/05/02 11:59:05;;;;;;;9.30;7.80;;;;;;;22.54;37.53;99002.47;5197846;28;20156;-68
2022/05/02 12:02:03;;;;;;;9.38;7.43;;;;;;;22.65;39.40;98990.91;5185254;28;20081;-68
2022/05/02 12:04:57;;;;;;;10.43;8.43;;;;;;;23.27;37.82;98994.47;5198401;28;20061;-67
2022/05/02 12:07:53;;;;;;;15.70;9.35;;;;;;;23.08;38.75;98992.81;5198972;28;20072;-67
2022/05/02 12:10:47;;;;;;;13.15;8.40;;;;;;;23.26;40.12;98997.41;5200139;28;20046;-68
2022/05/02 12:13:40;;;;;;;11.63;7.55;;;;;;;23.47;39.74;98996.09;5197120;28;20057;-67
2022/05/02 12:16:33;;;;;;;12.45;7.55;;;;;;;23.15;38.58;98990.88;5198503;28;20485;-67
2022/05/02 12:19:33;;;;;;;8.82;7.22;;;;;;;21.73;39.74;98987.84;5200742;28;20057;-67
2022/05/02 12:22:26;;;;;;;10.45;6.38;;;;;;;22.22;39.91;98991.72;5198905;28;20072;-68
2022/05/02 12:25:16;;;;;;;9.07;6.97;;;;;;;22.07;38.79;98991.16;5201380;28;20052;-67
2022/05/02 12:28:07;;;;;;;6.65;5.97;;;;;;;22.55;39.05;98959.03;5199039;28;20049;-68
2022/05/02 12:30:57;;;;;;;6.43;5.75;;;;;;;23.30;37.39;98983.19;5198391;28;20206;-67
2022/05/02 12:33:59;;;;;;;8.57;5.00;;;;;;;23.22;39.06;98975.41;5198991;28;20142;-67
2022/05/02 12:36:55;;;;;;;5.57;4.97;;;;;;;23.02;38.17;98975.63;5195760;28;20065;-68
2022/05/02 12:39:49;;;;;;;5.70;4.93;;;;;;;21.83;38.61;98976.59;5200287;28;20056;-67
2022/05/02 12:42:51;;;;;;;8.50;5.63;;;;;;;22.49;37.59;98982.34;5195292;28;20553;-68
2022/05/02 12:45:47;;;;;;;7.65;5.90;;;;;;;22.92;38.21;98986.09;5201693;28;20466;-67
2022/05/02 12:48:50;;;;;;;8.23;5.28;;;;;;;22.27;38.43;98976.50;5201182;28;20530;-68
2022/05/02 12:51:49;;;;;;;7.32;6.25;;;;;;;21.62;39.20;98970.44;5193502;28;20057;-67
2022/05/02 12:54:48;;;;;;;8.32;5.68;;;;;;;22.47;38.78;98972.81;5197029;28;20419;-68
2022/05/02 13:01:01;;;;;;;8.77;5.78;;;;;;;22.55;38.27;98971.69;5198845;28;20079;-68
2022/05/02 13:03:55;;;;;;;9.40;5.22;;;;;;;21.44;39.25;98965.78;5196004;28;20196;-68
2022/05/02 13:06:46;;;;;;;8.70;6.10;;;;;;;22.12;38.57;98964.31;5203794;28;20056;-69
2022/05/02 13:09:39;;;;;;;8.38;4.95;;;;;;;22.28;38.53;98956.56;5205186;28;20046;-67
2022/05/02 13:12:29;;;;;;;7.13;5.38;;;;;;;22.29;37.83;98965.47;5200315;28;20053;-67
2022/05/02 13:15:22;;;;;;;6.50;4.70;;;;;;;22.19;37.90;98952.47;5197272;28;20103;-68
2022/05/02 13:18:16;;;;;;;5.67;4.60;;;;;;;22.26;37.65;98947.84;5204494;28;20049;-68
2022/05/02 13:21:18;;;;;;;5.10;4.57;;;;;;;22.36;37.21;98950.03;5197143;28;20057;-68
2022/05/02 13:24:12;;;;;;;8.00;5.13;;;;;;;22.24;36.68;98941.81;5203045;28;20054;-67
2022/05/02 13:27:07;;;;;;;5.32;4.80;;;;;;;22.59;36.69;98941.31;5200652;28;20045;-67
2022/05/02 13:30:03;;;;;;;7.28;4.57;;;;;;;22.54;38.84;98945.72;5183160;28;20422;-67
2022/05/02 13:33:03;;;;;;;6.28;4.72;;;;;;;22.39;39.68;98930.69;5207200;28;20053;-68
2022/05/02 13:36:04;;;;;;;7.63;5.53;;;;;;;22.74;38.29;98941.75;5200746;28;20589;-67
2022/05/02 13:39:03;;;;;;;7.32;6.13;;;;;;;22.54;39.18;98919.53;5201696;28;20095;-67
2022/05/02 13:42:13;;;;;;;9.20;6.88;;;;;;;22.18;38.97;98925.66;5201443;28;20064;-67
2022/05/02 13:45:10;;;;;;;11.02;6.95;;;;;;;21.57;39.23;98919.03;5184166;28;20538;-67
2022/05/02 13:48:14;;;;;;;9.85;5.60;;;;;;;22.34;37.12;98930.50;5205029;28;20116;-67
2022/05/02 13:51:19;;;;;;;5.55;4.68;;;;;;;22.42;36.32;98918.63;5196497;28;20054;-67
2022/05/02 13:54:24;;;;;;;5.65;3.80;;;;;;;22.37;35.45;98915.75;5199924;28;20065;-68
2022/05/02 13:57:39;;;;;;;8.15;5.70;;;;;;;22.24;35.35;98919.38;5197613;28;20049;-67
2022/05/02 14:03:52;;;;;;;5.10;4.53;;;;;;;22.62;36.22;98913.84;5200408;28;20064;-67
2022/05/02 14:09:50;;;;;;;7.93;4.88;;;;;;;22.82;36.57;98910.91;5201745;28;20092;-68
2022/05/02 14:12:42;;;;;;;5.00;4.50;;;;;;;22.78;38.44;98901.63;5199564;28;20049;-67
2022/05/02 14:15:33;;;;;;;5.57;4.53;;;;;;;22.59;37.18;98897.25;5196867;28;20053;-68
2022/05/02 14:18:23;;;;;;;6.60;4.45;;;;;;;22.55;37.00;98898.72;5196579;28;20407;-67
2022/05/02 14:21:14;;;;;;;7.03;5.40;;;;;;;22.11;36.23;98881.66;5196155;28;20052;-67
2022/05/02 14:24:05;;;;;;;6.97;4.72;;;;;;;22.45;37.21;98901.94;5198495;28;20099;-67
2022/05/02 14:26:57;;;;;;;7.82;5.05;;;;;;;21.68;36.76;98894.03;5202151;28;20057;-67